Portada
METAR-TAF:

METAR-TAF

Aeropuertos :

Aeropuerto Cherif Al Idrissi

Alhucemas, Marruecos

latitud: 35-11N, longitud: 003-51W, altitud: 27 m

Observación

El informe se hizo hace 13 minutos, a las 03:00 UTC
Viento 3 kt del norte
Temperatura 23°C
Humedad 94%
Presión 1012 hPa
Visibilidad: 7000 m
Nubes dispersas a una altura de 1000 ft

METAR: GMTA 300300Z 01003KT 7000 SCT010 23/22 Q1012 NOSIG

Hora: 04:13 (03:13 UTC)

Pronóstico

El informe se hizo hace 4 horas y 13 minutos, a las 23:00 UTC
Pronóstico válido del 30 a las 00 UTC al 31 a las 06 UTC
Viento 2 kt con dirección variable
Visibilidad: 7000 m
Nubes dispersas a una altura de 1000 ft
Probabilidad 30%
del 30 a las 00 UTC al 30 a las 06 UTC
Visibilidad: 3000 m
Cielo nuboso a una altura de 800 ft
neblina

TAF: GMTA 292300Z 3000/3106 VRB02KT 7000 SCT010 PROB30 3000/3006 3000 BR BKN008

Observaciones y pronósticos meteorológicos de más de 4000 aeropuertos (mensajes METAR y TAF).

Los puntos amarillos y rojos representan las estaciones disponibles.

Ponga el ratón en el punto deseado para ver el nombre de la estación.

Haga clic para ver las observaciones y los pronósticos meteorológicos.

Para cambiar el mapa : haga clic en los botones verdes con una cruz de color negro para hacer un zoom, en el botón verde con un guión para alejar o en las flechas verdes para mapas adyacentes.


METAR-TAF: